sensor_id;sensor_type;location;lat;lon;timestamp;temperature;humidity
22456;DHT22;11395;53.204;6.502;2023-04-06T00:02:17;22.30;53.20
22456;DHT22;11395;53.204;6.502;2023-04-06T00:04:43;22.30;53.20
22456;DHT22;11395;53.204;6.502;2023-04-06T00:07:09;22.20;53.30
22456;DHT22;11395;53.204;6.502;2023-04-06T00:09:36;22.20;53.30
22456;DHT22;11395;53.204;6.502;2023-04-06T00:12:02;22.20;53.20
22456;DHT22;11395;53.204;6.502;2023-04-06T00:14:28;22.10;53.20
22456;DHT22;11395;53.204;6.502;2023-04-06T00:16:55;22.10;53.30
22456;DHT22;11395;53.204;6.502;2023-04-06T00:19:21;22.10;53.30
22456;DHT22;11395;53.204;6.502;2023-04-06T00:21:47;22.10;53.20
22456;DHT22;11395;53.204;6.502;2023-04-06T00:24:14;22.10;53.30
22456;DHT22;11395;53.204;6.502;2023-04-06T00:26:40;22.00;53.20
22456;DHT22;11395;53.204;6.502;2023-04-06T00:29:07;22.00;53.20
22456;DHT22;11395;53.204;6.502;2023-04-06T00:31:33;21.90;53.30
22456;DHT22;11395;53.204;6.502;2023-04-06T00:33:59;21.90;53.50
22456;DHT22;11395;53.204;6.502;2023-04-06T00:36:25;21.80;53.40
22456;DHT22;11395;53.204;6.502;2023-04-06T00:38:52;21.80;53.50
22456;DHT22;11395;53.204;6.502;2023-04-06T00:41:18;21.80;53.50
22456;DHT22;11395;53.204;6.502;2023-04-06T00:43:44;21.80;53.50
22456;DHT22;11395;53.204;6.502;2023-04-06T00:46:10;21.80;53.40
22456;DHT22;11395;53.204;6.502;2023-04-06T00:48:37;21.80;53.50
22456;DHT22;11395;53.204;6.502;2023-04-06T00:51:03;21.70;53.40
22456;DHT22;11395;53.204;6.502;2023-04-06T00:53:29;21.70;53.50
22456;DHT22;11395;53.204;6.502;2023-04-06T00:55:57;21.70;53.50
22456;DHT22;11395;53.204;6.502;2023-04-06T00:58:23;21.70;53.40
22456;DHT22;11395;53.204;6.502;2023-04-06T01:00:55;21.70;53.50
22456;DHT22;11395;53.204;6.502;2023-04-06T01:03:22;21.60;53.50
22456;DHT22;11395;53.204;6.502;2023-04-06T01:05:48;21.60;53.50
22456;DHT22;11395;53.204;6.502;2023-04-06T01:08:21;21.60;53.50
22456;DHT22;11395;53.204;6.502;2023-04-06T01:10:52;21.60;53.50
22456;DHT22;11395;53.204;6.502;2023-04-06T01:13:37;21.50;54.30
22456;DHT22;11395;53.204;6.502;2023-04-06T01:16:07;21.50;53.70
22456;DHT22;11395;53.204;6.502;2023-04-06T01:18:45;21.40;53.80
22456;DHT22;11395;53.204;6.502;2023-04-06T01:21:21;21.40;53.90
22456;DHT22;11395;53.204;6.502;2023-04-06T01:24:07;21.30;53.80
22456;DHT22;11395;53.204;6.502;2023-04-06T01:26:47;21.30;53.90
22456;DHT22;11395;53.204;6.502;2023-04-06T01:29:14;21.20;53.80
22456;DHT22;11395;53.204;6.502;2023-04-06T01:31:40;21.20;53.80
22456;DHT22;11395;53.204;6.502;2023-04-06T01:34:06;21.20;54.00
22456;DHT22;11395;53.204;6.502;2023-04-06T01:36:33;21.10;54.00
22456;DHT22;11395;53.204;6.502;2023-04-06T01:39:10;21.10;54.00
22456;DHT22;11395;53.204;6.502;2023-04-06T01:41:38;21.10;54.20
22456;DHT22;11395;53.204;6.502;2023-04-06T01:44:05;21.10;54.30
22456;DHT22;11395;53.204;6.502;2023-04-06T01:46:31;21.10;54.30
22456;DHT22;11395;53.204;6.502;2023-04-06T01:48:59;21.00;54.30
22456;DHT22;11395;53.204;6.502;2023-04-06T01:51:33;21.00;54.30
22456;DHT22;11395;53.204;6.502;2023-04-06T01:54:02;21.00;54.30
22456;DHT22;11395;53.204;6.502;2023-04-06T01:56:38;21.00;54.40
22456;DHT22;11395;53.204;6.502;2023-04-06T01:59:22;20.90;54.40
22456;DHT22;11395;53.204;6.502;2023-04-06T02:01:48;20.90;55.00
22456;DHT22;11395;53.204;6.502;2023-04-06T02:04:14;20.90;54.40
22456;DHT22;11395;53.204;6.502;2023-04-06T02:06:41;20.90;54.40
22456;DHT22;11395;53.204;6.502;2023-04-06T02:09:09;20.80;54.30
22456;DHT22;11395;53.204;6.502;2023-04-06T02:11:35;20.80;54.30
22456;DHT22;11395;53.204;6.502;2023-04-06T02:14:02;20.80;54.30
22456;DHT22;11395;53.204;6.502;2023-04-06T02:16:31;20.80;54.40
22456;DHT22;11395;53.204;6.502;2023-04-06T02:18:57;20.70;54.40
22456;DHT22;11395;53.204;6.502;2023-04-06T02:21:23;20.70;54.40
22456;DHT22;11395;53.204;6.502;2023-04-06T02:23:49;20.70;54.50
22456;DHT22;11395;53.204;6.502;2023-04-06T02:26:16;20.70;54.50
22456;DHT22;11395;53.204;6.502;2023-04-06T02:28:42;20.70;54.60
22456;DHT22;11395;53.204;6.502;2023-04-06T02:31:08;20.60;54.60
22456;DHT22;11395;53.204;6.502;2023-04-06T02:33:35;20.60;54.60
22456;DHT22;11395;53.204;6.502;2023-04-06T02:36:01;20.60;54.70
22456;DHT22;11395;53.204;6.502;2023-04-06T02:38:28;20.60;54.70
22456;DHT22;11395;53.204;6.502;2023-04-06T02:40:54;20.50;54.70
22456;DHT22;11395;53.204;6.502;2023-04-06T02:43:23;20.50;54.60
22456;DHT22;11395;53.204;6.502;2023-04-06T02:45:54;20.60;54.60
22456;DHT22;11395;53.204;6.502;2023-04-06T02:48:23;20.50;54.60
22456;DHT22;11395;53.204;6.502;2023-04-06T02:50:49;20.50;54.50
22456;DHT22;11395;53.204;6.502;2023-04-06T02:53:15;20.50;54.60
22456;DHT22;11395;53.204;6.502;2023-04-06T02:55:41;20.40;54.60
22456;DHT22;11395;53.204;6.502;2023-04-06T02:58:08;20.40;54.60
22456;DHT22;11395;53.204;6.502;2023-04-06T03:00:45;20.40;54.70
22456;DHT22;11395;53.204;6.502;2023-04-06T03:03:11;20.40;54.80
22456;DHT22;11395;53.204;6.502;2023-04-06T03:05:38;20.30;54.70
22456;DHT22;11395;53.204;6.502;2023-04-06T03:08:05;20.30;54.80
22456;DHT22;11395;53.204;6.502;2023-04-06T03:10:39;20.30;54.70
22456;DHT22;11395;53.204;6.502;2023-04-06T03:13:06;20.30;54.60
22456;DHT22;11395;53.204;6.502;2023-04-06T03:15:50;20.30;54.30
22456;DHT22;11395;53.204;6.502;2023-04-06T03:18:22;20.40;54.60
22456;DHT22;11395;53.204;6.502;2023-04-06T03:20:52;20.50;54.40
22456;DHT22;11395;53.204;6.502;2023-04-06T03:23:25;20.50;54.30
22456;DHT22;11395;53.204;6.502;2023-04-06T03:25:56;20.60;54.20
22456;DHT22;11395;53.204;6.502;2023-04-06T03:28:23;20.70;54.10
22456;DHT22;11395;53.204;6.502;2023-04-06T03:30:55;20.80;53.90
22456;DHT22;11395;53.204;6.502;2023-04-06T03:33:37;20.90;53.70
22456;DHT22;11395;53.204;6.502;2023-04-06T03:36:03;21.10;53.60
22456;DHT22;11395;53.204;6.502;2023-04-06T03:38:33;21.10;53.50
22456;DHT22;11395;53.204;6.502;2023-04-06T03:41:01;21.20;53.40
22456;DHT22;11395;53.204;6.502;2023-04-06T03:43:27;21.30;53.30
22456;DHT22;11395;53.204;6.502;2023-04-06T03:45:53;21.30;53.10
22456;DHT22;11395;53.204;6.502;2023-04-06T03:48:20;21.40;53.00
22456;DHT22;11395;53.204;6.502;2023-04-06T03:50:47;21.40;52.90
22456;DHT22;11395;53.204;6.502;2023-04-06T03:53:13;21.40;52.90
22456;DHT22;11395;53.204;6.502;2023-04-06T03:55:39;21.50;53.50
22456;DHT22;11395;53.204;6.502;2023-04-06T03:58:05;21.50;52.80
22456;DHT22;11395;53.204;6.502;2023-04-06T04:00:31;21.50;52.70
22456;DHT22;11395;53.204;6.502;2023-04-06T04:02:58;21.60;52.70
22456;DHT22;11395;53.204;6.502;2023-04-06T04:05:25;21.60;52.60
22456;DHT22;11395;53.204;6.502;2023-04-06T04:07:52;21.60;52.60
22456;DHT22;11395;53.204;6.502;2023-04-06T04:10:20;21.70;52.40
22456;DHT22;11395;53.204;6.502;2023-04-06T04:12:46;21.80;52.30
22456;DHT22;11395;53.204;6.502;2023-04-06T04:15:12;21.80;52.10
22456;DHT22;11395;53.204;6.502;2023-04-06T04:17:38;21.90;52.00
22456;DHT22;11395;53.204;6.502;2023-04-06T04:20:05;22.00;52.40
22456;DHT22;11395;53.204;6.502;2023-04-06T04:22:32;22.10;51.70
22456;DHT22;11395;53.204;6.502;2023-04-06T04:24:59;22.30;51.50
22456;DHT22;11395;53.204;6.502;2023-04-06T04:27:26;22.40;51.40
22456;DHT22;11395;53.204;6.502;2023-04-06T04:29:52;22.50;51.20
22456;DHT22;11395;53.204;6.502;2023-04-06T04:32:18;22.60;51.10
22456;DHT22;11395;53.204;6.502;2023-04-06T04:34:47;22.70;50.90
22456;DHT22;11395;53.204;6.502;2023-04-06T04:37:23;22.90;50.80
22456;DHT22;11395;53.204;6.502;2023-04-06T04:39:53;23.00;50.40
22456;DHT22;11395;53.204;6.502;2023-04-06T04:42:19;23.20;50.30
22456;DHT22;11395;53.204;6.502;2023-04-06T04:44:50;23.40;50.20
22456;DHT22;11395;53.204;6.502;2023-04-06T04:47:26;23.60;50.00
22456;DHT22;11395;53.204;6.502;2023-04-06T04:49:52;23.70;49.80
22456;DHT22;11395;53.204;6.502;2023-04-06T04:52:22;23.90;49.60
22456;DHT22;11395;53.204;6.502;2023-04-06T04:54:57;24.00;49.40
22456;DHT22;11395;53.204;6.502;2023-04-06T04:57:27;24.10;49.20
22456;DHT22;11395;53.204;6.502;2023-04-06T04:59:53;24.20;49.10
22456;DHT22;11395;53.204;6.502;2023-04-06T05:02:20;24.20;48.90
22456;DHT22;11395;53.204;6.502;2023-04-06T05:05:06;24.30;49.10
22456;DHT22;11395;53.204;6.502;2023-04-06T05:07:33;24.40;49.00
22456;DHT22;11395;53.204;6.502;2023-04-06T05:10:00;24.40;48.80
22456;DHT22;11395;53.204;6.502;2023-04-06T05:12:31;24.40;48.80
22456;DHT22;11395;53.204;6.502;2023-04-06T05:15:06;24.50;48.60
22456;DHT22;11395;53.204;6.502;2023-04-06T05:17:32;24.50;48.70
22456;DHT22;11395;53.204;6.502;2023-04-06T05:19:59;24.50;48.70
22456;DHT22;11395;53.204;6.502;2023-04-06T05:22:27;24.50;48.70
22456;DHT22;11395;53.204;6.502;2023-04-06T05:25:02;24.50;48.80
22456;DHT22;11395;53.204;6.502;2023-04-06T05:27:30;24.50;48.90
22456;DHT22;11395;53.204;6.502;2023-04-06T05:29:57;24.40;48.80
22456;DHT22;11395;53.204;6.502;2023-04-06T05:32:25;24.40;48.90
22456;DHT22;11395;53.204;6.502;2023-04-06T05:34:52;24.40;48.70
22456;DHT22;11395;53.204;6.502;2023-04-06T05:37:18;24.40;48.80
22456;DHT22;11395;53.204;6.502;2023-04-06T05:39:44;24.40;48.70
22456;DHT22;11395;53.204;6.502;2023-04-06T05:42:10;24.40;49.30
22456;DHT22;11395;53.204;6.502;2023-04-06T05:44:55;24.30;48.80
22456;DHT22;11395;53.204;6.502;2023-04-06T05:47:22;24.30;48.80
22456;DHT22;11395;53.204;6.502;2023-04-06T05:49:54;24.30;48.90
22456;DHT22;11395;53.204;6.502;2023-04-06T05:52:31;24.30;49.00
22456;DHT22;11395;53.204;6.502;2023-04-06T05:54:58;24.30;48.80
22456;DHT22;11395;53.204;6.502;2023-04-06T05:57:25;24.30;49.40
22456;DHT22;11395;53.204;6.502;2023-04-06T05:59:51;24.30;48.90
22456;DHT22;11395;53.204;6.502;2023-04-06T06:02:20;24.40;48.80
22456;DHT22;11395;53.204;6.502;2023-04-06T06:04:50;24.40;48.70
22456;DHT22;11395;53.204;6.502;2023-04-06T06:07:18;24.40;48.70
22456;DHT22;11395;53.204;6.502;2023-04-06T06:09:58;24.40;48.50
22456;DHT22;11395;53.204;6.502;2023-04-06T06:12:29;24.50;48.70
22456;DHT22;11395;53.204;6.502;2023-04-06T06:14:56;24.40;48.70
22456;DHT22;11395;53.204;6.502;2023-04-06T06:17:24;24.50;49.00
22456;DHT22;11395;53.204;6.502;2023-04-06T06:19:50;24.50;49.50
22456;DHT22;11395;53.204;6.502;2023-04-06T06:22:17;24.50;48.80
22456;DHT22;11395;53.204;6.502;2023-04-06T06:24:46;24.50;48.70
22456;DHT22;11395;53.204;6.502;2023-04-06T06:27:13;24.50;48.60
22456;DHT22;11395;53.204;6.502;2023-04-06T06:29:39;24.60;48.70
22456;DHT22;11395;53.204;6.502;2023-04-06T06:32:05;24.50;48.30
22456;DHT22;11395;53.204;6.502;2023-04-06T06:34:32;24.50;48.50
22456;DHT22;11395;53.204;6.502;2023-04-06T06:37:01;24.50;48.50
22456;DHT22;11395;53.204;6.502;2023-04-06T06:39:28;24.50;48.40
22456;DHT22;11395;53.204;6.502;2023-04-06T06:41:55;24.50;48.50
22456;DHT22;11395;53.204;6.502;2023-04-06T06:44:39;24.40;48.40
22456;DHT22;11395;53.204;6.502;2023-04-06T06:47:05;24.40;48.40
22456;DHT22;11395;53.204;6.502;2023-04-06T06:49:31;24.40;48.40
22456;DHT22;11395;53.204;6.502;2023-04-06T06:51:58;24.30;48.40
22456;DHT22;11395;53.204;6.502;2023-04-06T06:54:24;24.30;48.20
22456;DHT22;11395;53.204;6.502;2023-04-06T06:56:50;24.20;48.50
22456;DHT22;11395;53.204;6.502;2023-04-06T06:59:16;24.20;48.40
22456;DHT22;11395;53.204;6.502;2023-04-06T07:01:42;24.10;48.30
22456;DHT22;11395;53.204;6.502;2023-04-06T07:04:09;24.10;48.30
22456;DHT22;11395;53.204;6.502;2023-04-06T07:06:36;24.10;48.70
22456;DHT22;11395;53.204;6.502;2023-04-06T07:09:02;24.00;49.00
22456;DHT22;11395;53.204;6.502;2023-04-06T07:11:29;24.00;48.90
22456;DHT22;11395;53.204;6.502;2023-04-06T07:13:56;24.10;49.10
22456;DHT22;11395;53.204;6.502;2023-04-06T07:16:22;24.10;48.80
22456;DHT22;11395;53.204;6.502;2023-04-06T07:18:48;24.20;49.00
22456;DHT22;11395;53.204;6.502;2023-04-06T07:21:15;24.20;48.90
22456;DHT22;11395;53.204;6.502;2023-04-06T07:23:41;24.40;48.90
22456;DHT22;11395;53.204;6.502;2023-04-06T07:26:08;24.50;48.50
22456;DHT22;11395;53.204;6.502;2023-04-06T07:28:34;24.50;48.40
22456;DHT22;11395;53.204;6.502;2023-04-06T07:31:01;24.60;48.40
22456;DHT22;11395;53.204;6.502;2023-04-06T07:33:28;24.70;48.50
22456;DHT22;11395;53.204;6.502;2023-04-06T07:35:56;24.70;48.50
22456;DHT22;11395;53.204;6.502;2023-04-06T07:38:24;24.70;48.60
22456;DHT22;11395;53.204;6.502;2023-04-06T07:40:51;24.70;48.50
22456;DHT22;11395;53.204;6.502;2023-04-06T07:43:17;24.80;48.90
22456;DHT22;11395;53.204;6.502;2023-04-06T07:45:43;24.80;48.70
22456;DHT22;11395;53.204;6.502;2023-04-06T07:48:10;24.90;48.70
22456;DHT22;11395;53.204;6.502;2023-04-06T07:50:38;24.90;48.60
22456;DHT22;11395;53.204;6.502;2023-04-06T07:53:05;24.90;48.40
22456;DHT22;11395;53.204;6.502;2023-04-06T07:55:31;25.00;48.30
22456;DHT22;11395;53.204;6.502;2023-04-06T07:57:57;25.10;48.20
22456;DHT22;11395;53.204;6.502;2023-04-06T08:00:24;25.20;48.30
22456;DHT22;11395;53.204;6.502;2023-04-06T08:02:50;25.20;48.50
22456;DHT22;11395;53.204;6.502;2023-04-06T08:05:16;25.30;48.30
22456;DHT22;11395;53.204;6.502;2023-04-06T08:07:43;25.30;48.10
22456;DHT22;11395;53.204;6.502;2023-04-06T08:10:10;25.30;48.30
22456;DHT22;11395;53.204;6.502;2023-04-06T08:12:36;25.30;48.70
22456;DHT22;11395;53.204;6.502;2023-04-06T08:15:02;25.30;47.80
22456;DHT22;11395;53.204;6.502;2023-04-06T08:17:31;25.30;47.90
22456;DHT22;11395;53.204;6.502;2023-04-06T08:19:57;25.30;48.50
22456;DHT22;11395;53.204;6.502;2023-04-06T08:22:23;25.30;47.60
22456;DHT22;11395;53.204;6.502;2023-04-06T08:24:50;25.30;48.40
22456;DHT22;11395;53.204;6.502;2023-04-06T08:27:16;25.30;47.60
22456;DHT22;11395;53.204;6.502;2023-04-06T08:29:42;25.30;47.40
22456;DHT22;11395;53.204;6.502;2023-04-06T08:32:08;25.30;47.60
22456;DHT22;11395;53.204;6.502;2023-04-06T08:34:35;25.30;47.40
22456;DHT22;11395;53.204;6.502;2023-04-06T08:37:01;25.30;47.70
22456;DHT22;11395;53.204;6.502;2023-04-06T08:39:27;25.30;47.70
22456;DHT22;11395;53.204;6.502;2023-04-06T08:41:54;25.30;47.50
22456;DHT22;11395;53.204;6.502;2023-04-06T08:44:24;25.30;47.90
22456;DHT22;11395;53.204;6.502;2023-04-06T08:46:51;25.30;47.80
22456;DHT22;11395;53.204;6.502;2023-04-06T08:49:18;25.20;47.80
22456;DHT22;11395;53.204;6.502;2023-04-06T08:51:45;25.20;47.80
22456;DHT22;11395;53.204;6.502;2023-04-06T08:54:13;25.20;47.90
22456;DHT22;11395;53.204;6.502;2023-04-06T08:56:39;25.20;47.90
22456;DHT22;11395;53.204;6.502;2023-04-06T08:59:06;25.10;47.90
22456;DHT22;11395;53.204;6.502;2023-04-06T09:01:35;25.20;47.90
22456;DHT22;11395;53.204;6.502;2023-04-06T09:04:07;25.10;48.00
22456;DHT22;11395;53.204;6.502;2023-04-06T09:06:35;25.10;48.00
22456;DHT22;11395;53.204;6.502;2023-04-06T09:09:03;25.10;48.00
22456;DHT22;11395;53.204;6.502;2023-04-06T09:11:29;25.10;48.20
22456;DHT22;11395;53.204;6.502;2023-04-06T09:14:06;25.10;48.10
22456;DHT22;11395;53.204;6.502;2023-04-06T09:16:39;25.10;48.80
22456;DHT22;11395;53.204;6.502;2023-04-06T09:19:06;25.20;48.20
22456;DHT22;11395;53.204;6.502;2023-04-06T09:21:32;25.20;48.70
22456;DHT22;11395;53.204;6.502;2023-04-06T09:24:03;25.30;48.00
22456;DHT22;11395;53.204;6.502;2023-04-06T09:26:29;25.40;48.60
22456;DHT22;11395;53.204;6.502;2023-04-06T09:28:59;25.40;48.00
22456;DHT22;11395;53.204;6.502;2023-04-06T09:31:29;25.50;48.00
22456;DHT22;11395;53.204;6.502;2023-04-06T09:33:56;25.50;47.80
22456;DHT22;11395;53.204;6.502;2023-04-06T09:36:30;25.50;47.80
22456;DHT22;11395;53.204;6.502;2023-04-06T09:38:59;25.40;47.90
22456;DHT22;11395;53.204;6.502;2023-04-06T09:41:30;25.50;48.60
22456;DHT22;11395;53.204;6.502;2023-04-06T09:46:43;25.30;47.80
22456;DHT22;11395;53.204;6.502;2023-04-06T09:49:11;25.30;47.90
22456;DHT22;11395;53.204;6.502;2023-04-06T09:51:48;25.30;48.00
22456;DHT22;11395;53.204;6.502;2023-04-06T09:54:21;25.20;48.10
22456;DHT22;11395;53.204;6.502;2023-04-06T09:57:01;25.20;48.10
22456;DHT22;11395;53.204;6.502;2023-04-06T10:02:39;25.10;48.20
22456;DHT22;11395;53.204;6.502;2023-04-06T10:07:42;25.00;48.30
22456;DHT22;11395;53.204;6.502;2023-04-06T10:10:10;25.00;48.30
22456;DHT22;11395;53.204;6.502;2023-04-06T10:12:38;25.10;48.30
22456;DHT22;11395;53.204;6.502;2023-04-06T10:15:05;25.00;48.20
22456;DHT22;11395;53.204;6.502;2023-04-06T10:17:32;25.10;48.30
22456;DHT22;11395;53.204;6.502;2023-04-06T10:20:10;25.00;48.20
22456;DHT22;11395;53.204;6.502;2023-04-06T10:22:45;25.00;48.10
22456;DHT22;11395;53.204;6.502;2023-04-06T10:25:30;25.00;48.10
22456;DHT22;11395;53.204;6.502;2023-04-06T10:28:07;25.00;48.20
22456;DHT22;11395;53.204;6.502;2023-04-06T10:30:34;25.00;48.50
22456;DHT22;11395;53.204;6.502;2023-04-06T10:33:00;25.00;48.30
22456;DHT22;11395;53.204;6.502;2023-04-06T10:35:37;24.90;48.30
22456;DHT22;11395;53.204;6.502;2023-04-06T10:38:04;24.90;48.30
22456;DHT22;11395;53.204;6.502;2023-04-06T10:40:31;25.00;48.40
22456;DHT22;11395;53.204;6.502;2023-04-06T10:43:08;25.00;48.40
22456;DHT22;11395;53.204;6.502;2023-04-06T10:45:35;25.10;48.30
22456;DHT22;11395;53.204;6.502;2023-04-06T10:48:16;25.20;48.40
22456;DHT22;11395;53.204;6.502;2023-04-06T10:50:50;25.30;48.30
22456;DHT22;11395;53.204;6.502;2023-04-06T10:53:27;25.30;48.10
22456;DHT22;11395;53.204;6.502;2023-04-06T10:55:57;25.40;48.00
22456;DHT22;11395;53.204;6.502;2023-04-06T10:58:27;25.40;48.10
22456;DHT22;11395;53.204;6.502;2023-04-06T11:00:54;25.40;47.90
22456;DHT22;11395;53.204;6.502;2023-04-06T11:03:21;25.50;48.00
22456;DHT22;11395;53.204;6.502;2023-04-06T11:05:49;25.40;47.80
22456;DHT22;11395;53.204;6.502;2023-04-06T11:08:31;25.40;47.80
22456;DHT22;11395;53.204;6.502;2023-04-06T11:11:09;25.30;47.90
22456;DHT22;11395;53.204;6.502;2023-04-06T11:13:42;25.30;48.00
22456;DHT22;11395;53.204;6.502;2023-04-06T11:16:16;25.30;48.10
22456;DHT22;11395;53.204;6.502;2023-04-06T11:21:35;25.30;48.30
22456;DHT22;11395;53.204;6.502;2023-04-06T11:24:10;25.30;48.30
22456;DHT22;11395;53.204;6.502;2023-04-06T11:31:47;25.30;49.00
22456;DHT22;11395;53.204;6.502;2023-04-06T11:34:19;25.30;48.90
22456;DHT22;11395;53.204;6.502;2023-04-06T11:36:47;25.30;48.90
22456;DHT22;11395;53.204;6.502;2023-04-06T11:39:18;25.20;48.90
22456;DHT22;11395;53.204;6.502;2023-04-06T11:41:49;25.20;48.80
22456;DHT22;11395;53.204;6.502;2023-04-06T11:44:15;25.20;48.90
22456;DHT22;11395;53.204;6.502;2023-04-06T11:46:52;25.20;48.90
22456;DHT22;11395;53.204;6.502;2023-04-06T11:49:18;25.20;48.80
22456;DHT22;11395;53.204;6.502;2023-04-06T11:51:46;25.10;48.90
22456;DHT22;11395;53.204;6.502;2023-04-06T11:54:12;25.10;49.10
22456;DHT22;11395;53.204;6.502;2023-04-06T11:56:38;25.10;49.10
22456;DHT22;11395;53.204;6.502;2023-04-06T11:59:05;25.00;48.80
22456;DHT22;11395;53.204;6.502;2023-04-06T12:01:31;25.00;49.10
22456;DHT22;11395;53.204;6.502;2023-04-06T12:03:57;25.00;49.20
22456;DHT22;11395;53.204;6.502;2023-04-06T12:06:24;25.00;49.90
22456;DHT22;11395;53.204;6.502;2023-04-06T12:08:51;24.90;49.20
22456;DHT22;11395;53.204;6.502;2023-04-06T12:11:17;25.00;49.20
22456;DHT22;11395;53.204;6.502;2023-04-06T12:13:45;25.00;49.20
22456;DHT22;11395;53.204;6.502;2023-04-06T12:16:11;24.90;49.10
22456;DHT22;11395;53.204;6.502;2023-04-06T12:18:37;24.90;49.90
22456;DHT22;11395;53.204;6.502;2023-04-06T12:21:04;24.90;49.20
22456;DHT22;11395;53.204;6.502;2023-04-06T12:23:31;24.90;49.30
22456;DHT22;11395;53.204;6.502;2023-04-06T12:25:57;24.80;49.20
22456;DHT22;11395;53.204;6.502;2023-04-06T12:28:24;24.80;49.40
22456;DHT22;11395;53.204;6.502;2023-04-06T12:30:53;24.70;49.30
22456;DHT22;11395;53.204;6.502;2023-04-06T12:33:20;24.80;49.40
22456;DHT22;11395;53.204;6.502;2023-04-06T12:35:46;24.70;49.30
22456;DHT22;11395;53.204;6.502;2023-04-06T12:38:12;24.70;49.40
22456;DHT22;11395;53.204;6.502;2023-04-06T12:40:39;24.70;49.40
22456;DHT22;11395;53.204;6.502;2023-04-06T12:43:05;24.70;49.30
22456;DHT22;11395;53.204;6.502;2023-04-06T12:45:32;24.70;49.20
22456;DHT22;11395;53.204;6.502;2023-04-06T12:47:58;24.70;49.20
22456;DHT22;11395;53.204;6.502;2023-04-06T12:50:24;24.70;49.20
22456;DHT22;11395;53.204;6.502;2023-04-06T12:52:51;24.80;49.00
22456;DHT22;11395;53.204;6.502;2023-04-06T12:55:17;24.80;49.20
22456;DHT22;11395;53.204;6.502;2023-04-06T12:57:44;24.80;49.40
22456;DHT22;11395;53.204;6.502;2023-04-06T13:00:11;24.80;49.50
22456;DHT22;11395;53.204;6.502;2023-04-06T13:02:37;24.90;49.30
22456;DHT22;11395;53.204;6.502;2023-04-06T13:05:04;25.00;49.20
22456;DHT22;11395;53.204;6.502;2023-04-06T13:07:30;25.10;49.20
22456;DHT22;11395;53.204;6.502;2023-04-06T13:09:57;25.10;49.00
22456;DHT22;11395;53.204;6.502;2023-04-06T13:12:23;25.20;49.00
22456;DHT22;11395;53.204;6.502;2023-04-06T13:14:49;25.20;49.00
22456;DHT22;11395;53.204;6.502;2023-04-06T13:17:18;25.30;49.00
22456;DHT22;11395;53.204;6.502;2023-04-06T13:19:44;25.30;49.00
22456;DHT22;11395;53.204;6.502;2023-04-06T13:22:10;25.30;48.90
22456;DHT22;11395;53.204;6.502;2023-04-06T13:24:36;25.40;48.80
22456;DHT22;11395;53.204;6.502;2023-04-06T13:27:02;25.40;48.90
22456;DHT22;11395;53.204;6.502;2023-04-06T13:29:29;25.40;48.90
22456;DHT22;11395;53.204;6.502;2023-04-06T13:31:55;25.40;49.30
22456;DHT22;11395;53.204;6.502;2023-04-06T13:34:21;25.40;49.20
22456;DHT22;11395;53.204;6.502;2023-04-06T13:36:47;25.40;49.30
22456;DHT22;11395;53.204;6.502;2023-04-06T13:39:13;25.40;49.30
22456;DHT22;11395;53.204;6.502;2023-04-06T13:41:39;25.40;49.20
22456;DHT22;11395;53.204;6.502;2023-04-06T13:44:06;25.40;49.30
22456;DHT22;11395;53.204;6.502;2023-04-06T13:46:32;25.40;50.00
22456;DHT22;11395;53.204;6.502;2023-04-06T13:48:58;25.30;49.30
22456;DHT22;11395;53.204;6.502;2023-04-06T13:51:24;25.30;49.30
22456;DHT22;11395;53.204;6.502;2023-04-06T13:53:52;25.30;50.10
22456;DHT22;11395;53.204;6.502;2023-04-06T13:56:19;25.30;49.50
22456;DHT22;11395;53.204;6.502;2023-04-06T13:58:45;25.20;49.50
22456;DHT22;11395;53.204;6.502;2023-04-06T14:01:11;25.20;49.50
22456;DHT22;11395;53.204;6.502;2023-04-06T14:03:38;25.20;49.60
22456;DHT22;11395;53.204;6.502;2023-04-06T14:06:12;25.10;49.50
22456;DHT22;11395;53.204;6.502;2023-04-06T14:08:38;25.00;49.70
22456;DHT22;11395;53.204;6.502;2023-04-06T14:11:04;25.00;49.80
22456;DHT22;11395;53.204;6.502;2023-04-06T14:13:34;24.90;49.90
22456;DHT22;11395;53.204;6.502;2023-04-06T14:16:00;24.90;50.00
22456;DHT22;11395;53.204;6.502;2023-04-06T14:18:26;24.90;50.00
22456;DHT22;11395;53.204;6.502;2023-04-06T14:20:57;24.90;50.00
22456;DHT22;11395;53.204;6.502;2023-04-06T14:23:23;24.90;50.30
22456;DHT22;11395;53.204;6.502;2023-04-06T14:26:04;24.90;50.30
22456;DHT22;11395;53.204;6.502;2023-04-06T14:28:32;24.90;50.50
22456;DHT22;11395;53.204;6.502;2023-04-06T14:31:00;24.90;50.50
22456;DHT22;11395;53.204;6.502;2023-04-06T14:33:27;24.90;50.30
22456;DHT22;11395;53.204;6.502;2023-04-06T14:35:53;24.90;50.30
22456;DHT22;11395;53.204;6.502;2023-04-06T14:38:19;24.90;50.20
22456;DHT22;11395;53.204;6.502;2023-04-06T14:40:45;24.80;50.10
22456;DHT22;11395;53.204;6.502;2023-04-06T14:43:12;24.80;50.10
22456;DHT22;11395;53.204;6.502;2023-04-06T14:45:38;24.70;50.20
22456;DHT22;11395;53.204;6.502;2023-04-06T14:48:10;24.70;50.50
22456;DHT22;11395;53.204;6.502;2023-04-06T14:50:39;24.70;50.70
22456;DHT22;11395;53.204;6.502;2023-04-06T14:53:05;24.60;50.90
22456;DHT22;11395;53.204;6.502;2023-04-06T14:55:31;24.60;51.10
22456;DHT22;11395;53.204;6.502;2023-04-06T14:57:58;24.60;51.10
22456;DHT22;11395;53.204;6.502;2023-04-06T15:00:24;24.60;51.10
22456;DHT22;11395;53.204;6.502;2023-04-06T15:02:50;24.60;51.10
22456;DHT22;11395;53.204;6.502;2023-04-06T15:05:17;24.60;51.10
22456;DHT22;11395;53.204;6.502;2023-04-06T15:07:43;24.50;51.20
22456;DHT22;11395;53.204;6.502;2023-04-06T15:10:09;24.60;51.30
22456;DHT22;11395;53.204;6.502;2023-04-06T15:12:36;24.60;51.40
22456;DHT22;11395;53.204;6.502;2023-04-06T15:15:02;24.70;51.30
22456;DHT22;11395;53.204;6.502;2023-04-06T15:17:29;24.70;51.30
22456;DHT22;11395;53.204;6.502;2023-04-06T15:19:55;24.70;51.40
22456;DHT22;11395;53.204;6.502;2023-04-06T15:22:21;24.70;51.20
22456;DHT22;11395;53.204;6.502;2023-04-06T15:24:47;24.70;51.10
22456;DHT22;11395;53.204;6.502;2023-04-06T15:27:13;24.70;51.30
22456;DHT22;11395;53.204;6.502;2023-04-06T15:29:39;24.70;51.20
22456;DHT22;11395;53.204;6.502;2023-04-06T15:32:06;24.70;51.40
22456;DHT22;11395;53.204;6.502;2023-04-06T15:34:32;24.70;51.20
22456;DHT22;11395;53.204;6.502;2023-04-06T15:37:02;24.70;51.30
22456;DHT22;11395;53.204;6.502;2023-04-06T15:39:31;24.70;51.10
22456;DHT22;11395;53.204;6.502;2023-04-06T15:41:58;24.70;51.10
22456;DHT22;11395;53.204;6.502;2023-04-06T15:44:29;24.70;51.10
22456;DHT22;11395;53.204;6.502;2023-04-06T15:46:56;24.70;51.10
22456;DHT22;11395;53.204;6.502;2023-04-06T15:49:22;24.80;51.10
22456;DHT22;11395;53.204;6.502;2023-04-06T15:51:50;24.70;51.00
22456;DHT22;11395;53.204;6.502;2023-04-06T15:54:16;24.80;50.90